Country
Station

 

Weather  for  Istanbul/Ataturk  -  Turkey    Turkey

  
26 °C (79 °F)
    
 
 

Current METAR for Istanbul/Ataturk is :

LTBA 191650Z 05016KT CAVOK 26/16 Q1015 NOSIG

 

This is a report for Istanbul/Ataturk - Turkey.
 
The report was made 31 minutes ago, at 16:50 UTC .
The wind was blowing at a speed of 8.2 meters per second (18.4 miles per hour) from northeast (050°).
 
The temperature was 26 °C (79 °F), with a dew-point at 16 °C (61 °F).
The temperature felt like 27 °C (80 °F).
 
The atmospheric pressure was 1015 hPa (29.97 inHg).
The relative humidity was 54.1%.
 
There were no clouds below 1500 meter (5000 feet) and no cumulonimbus clouds.
 
The overall visibility was greater than 10 kilometers (6.2 miles).
 

 
 
 
 

Country :   A   B   C   D   E   F   G   H   I   J   K   L   M   N   O   P   Q   R   S   T   U   V   W   Y   Z

 

Site Info  |  Disclaimer  |  Credits  |  Privacy
Contact us  |  Add to favorites
© 2013-2019 METARs - All rights reserved